Time;durP1;ratioP1;P1;durP2;ratioP2;P2;SDS_P1;SDS_P2;PMS_P1;PMS_P2;Temp;Humidity;BMP_temperature;BMP_pressure;BME280_temperature;BME280_humidity;BME280_pressure;Samples;Min_cycle;Max_cycle;Signal;HPM_P1;HPM_P2
2022/01/09 00:02:45;;;;;;;73.63;23.77;;;-2.60;99.90;;;;;;4410223;28;661008;-70
2022/01/09 00:05:33;;;;;;;68.67;24.10;;;-2.60;99.90;;;;;;4385363;28;661596;-69
2022/01/09 00:08:20;;;;;;;76.10;24.83;;;-2.60;99.90;;;;;;4412170;28;660419;-70
2022/01/09 00:11:08;;;;;;;73.77;24.60;;;-2.50;99.90;;;;;;4385650;28;661775;-70
2022/01/09 00:13:55;;;;;;;70.13;24.50;;;-2.50;99.90;;;;;;4407189;28;660234;-72
2022/01/09 00:16:43;;;;;;;66.67;23.27;;;-2.50;99.90;;;;;;4385057;28;662486;-69
2022/01/09 00:19:31;;;;;;;69.10;26.33;;;-2.50;99.90;;;;;;4407869;28;660605;-71
2022/01/09 00:22:26;;;;;;;73.80;25.97;;;-2.40;99.90;;;;;;4387730;28;660939;-72
2022/01/09 00:25:14;;;;;;;74.55;25.48;;;-2.40;99.90;;;;;;4386190;28;661255;-71
2022/01/09 00:28:02;;;;;;;73.27;25.17;;;-2.40;99.90;;;;;;4380678;28;660589;-73
2022/01/09 00:30:49;;;;;;;77.03;26.13;;;-2.40;99.90;;;;;;4411116;28;661361;-72
2022/01/09 00:33:37;;;;;;;83.57;29.10;;;-2.40;99.90;;;;;;4383742;28;660452;-72
2022/01/09 00:36:26;;;;;;;75.10;26.90;;;-2.40;99.90;;;;;;4409365;28;661506;-72
2022/01/09 00:39:13;;;;;;;77.93;25.73;;;-2.30;99.90;;;;;;4386453;28;660903;-71
2022/01/09 00:42:01;;;;;;;70.37;26.80;;;-2.30;99.90;;;;;;4396858;28;661585;-73
2022/01/09 00:44:48;;;;;;;73.47;27.10;;;-2.30;99.90;;;;;;4401683;28;661652;-71
2022/01/09 00:47:36;;;;;;;73.70;26.33;;;-2.30;99.90;;;;;;4390664;28;661067;-73
2022/01/09 00:50:23;;;;;;;73.77;26.93;;;-2.20;99.90;;;;;;4407024;28;661930;-71
2022/01/09 00:53:12;;;;;;;75.10;26.00;;;-2.20;99.90;;;;;;4388452;28;660383;-73
2022/01/09 00:56:00;;;;;;;71.87;25.70;;;-2.10;99.90;;;;;;4403452;28;660982;-72
2022/01/09 00:58:48;;;;;;;72.27;26.00;;;-2.10;99.90;;;;;;4385624;28;662074;-72
2022/01/09 01:01:35;;;;;;;72.33;27.23;;;-2.10;99.90;;;;;;4407533;28;661290;-72
2022/01/09 01:04:23;;;;;;;72.20;25.57;;;-2.00;99.90;;;;;;4383894;28;662555;-72
2022/01/09 01:07:10;;;;;;;66.77;25.80;;;-2.00;99.90;;;;;;4403871;28;660952;-72
2022/01/09 01:09:59;;;;;;;73.63;26.67;;;-1.90;99.90;;;;;;4384400;28;662313;-72
2022/01/09 01:12:48;;;;;;;76.53;27.03;;;-1.80;99.90;;;;;;4380541;28;661681;-72
2022/01/09 01:15:36;;;;;;;74.73;27.97;;;-1.80;99.90;;;;;;4387462;28;660817;-73
2022/01/09 01:18:23;;;;;;;84.47;30.93;;;-1.80;99.90;;;;;;4406717;28;662194;-72
2022/01/09 01:21:11;;;;;;;85.63;29.93;;;-1.80;99.90;;;;;;4387849;28;661160;-72
2022/01/09 01:23:59;;;;;;;75.50;28.40;;;-1.80;99.90;;;;;;4406353;28;661646;-72
2022/01/09 01:26:48;;;;;;;74.23;27.07;;;-1.80;99.90;;;;;;4387780;28;661548;-73
2022/01/09 01:29:36;;;;;;;76.20;27.83;;;-1.80;99.90;;;;;;4410787;28;660492;-72
2022/01/09 01:32:24;;;;;;;86.13;29.90;;;-1.80;99.90;;;;;;4387874;28;661047;-72
2022/01/09 01:35:12;;;;;;;73.63;27.00;;;-1.80;99.90;;;;;;4384507;28;660604;-73
2022/01/09 01:37:59;;;;;;;80.77;27.77;;;-1.70;99.90;;;;;;4402234;28;662064;-71
2022/01/09 01:40:47;;;;;;;76.30;26.57;;;-1.70;99.90;;;;;;4381671;28;660585;-73
2022/01/09 01:43:36;;;;;;;76.67;27.67;;;-1.70;99.90;;;;;;4405863;28;661219;-72
2022/01/09 01:46:24;;;;;;;65.60;24.93;;;-1.60;99.90;;;;;;4390193;28;661352;-72
2022/01/09 01:49:13;;;;;;;74.03;25.17;;;-1.60;99.90;;;;;;4389393;28;661336;-73
2022/01/09 01:52:00;;;;;;;69.75;25.40;;;-1.60;99.90;;;;;;4409173;28;661389;-72
2022/01/09 01:54:48;;;;;;;68.37;25.43;;;-1.60;99.90;;;;;;4387325;28;661916;-72
2022/01/09 01:57:35;;;;;;;70.60;27.07;;;-1.60;99.90;;;;;;4413835;28;660246;-72
2022/01/09 02:00:24;;;;;;;68.17;25.67;;;-1.50;99.90;;;;;;4388537;28;662158;-72
2022/01/09 02:03:11;;;;;;;68.07;25.50;;;-1.40;99.90;;;;;;4388941;28;660665;-72
2022/01/09 02:05:59;;;;;;;66.47;25.67;;;-1.40;99.90;;;;;;4409763;28;662161;-72
2022/01/09 02:08:46;;;;;;;67.23;26.33;;;-1.40;99.90;;;;;;4390159;28;661131;-72
2022/01/09 02:11:34;;;;;;;70.80;26.98;;;-1.40;99.90;;;;;;4409669;28;661939;-72
2022/01/09 02:14:22;;;;;;;72.37;27.77;;;-1.40;99.90;;;;;;4388840;28;660535;-72
2022/01/09 02:17:11;;;;;;;73.87;27.60;;;-1.40;99.90;;;;;;4407238;28;661042;-72
2022/01/09 02:20:03;;;;;;;73.30;28.13;;;-1.40;99.90;;;;;;4385583;28;662135;-72
2022/01/09 02:22:51;;;;;;;66.50;26.43;;;-1.40;99.90;;;;;;4376216;28;660669;-73
2022/01/09 02:25:39;;;;;;;72.00;25.90;;;-1.40;99.90;;;;;;4409788;28;661853;-72
2022/01/09 02:28:27;;;;;;;63.00;25.53;;;-1.40;99.90;;;;;;4390560;28;661937;-73
2022/01/09 02:31:14;;;;;;;69.93;26.83;;;-1.40;99.90;;;;;;4411130;28;661636;-72
2022/01/09 02:34:02;;;;;;;74.23;26.00;;;-1.40;99.90;;;;;;4388171;28;662255;-72
2022/01/09 02:36:51;;;;;;;66.70;25.87;;;-1.40;99.90;;;;;;4409084;28;661403;-72
2022/01/09 02:39:38;;;;;;;66.67;25.97;;;-1.40;99.90;;;;;;4389594;28;661155;-72
2022/01/09 02:42:28;;;;;;;73.63;26.50;;;-1.40;99.90;;;;;;4391889;28;660860;-73
2022/01/09 02:45:20;;;;;;;77.47;28.15;;;-1.50;99.90;;;;;;4374715;28;661334;-73
2022/01/09 02:48:09;;;;;;;69.80;27.33;;;-1.50;99.90;;;;;;4371140;28;660636;-72
2022/01/09 02:51:03;;;;;;;74.53;28.70;;;-1.50;99.90;;;;;;4385650;28;660932;-72
2022/01/09 02:53:57;;;;;;;75.90;30.20;;;-1.60;99.90;;;;;;4382132;28;661153;-72
2022/01/09 02:56:45;;;;;;;90.67;33.13;;;-1.60;99.90;;;;;;4366809;28;660496;-72
2022/01/09 02:59:32;;;;;;;86.47;32.93;;;-1.60;99.90;;;;;;4353265;28;660413;-72
2022/01/09 03:02:21;;;;;;;76.83;29.73;;;-1.60;99.90;;;;;;4381681;28;660836;-72
2022/01/09 03:05:10;;;;;;;68.90;26.53;;;-1.60;99.90;;;;;;4367456;28;661966;-72
2022/01/09 03:07:57;;;;;;;57.13;24.43;;;-1.60;99.90;;;;;;4374195;28;660928;-72
2022/01/09 03:10:46;;;;;;;65.27;25.87;;;-1.60;99.90;;;;;;4391141;28;661000;-72
2022/01/09 03:13:34;;;;;;;63.40;25.87;;;-1.70;99.90;;;;;;4362948;28;662037;-72
2022/01/09 03:16:21;;;;;;;80.43;27.80;;;-1.80;99.90;;;;;;4378692;28;660974;-72
2022/01/09 03:19:09;;;;;;;70.97;25.97;;;-1.80;99.90;;;;;;4390150;28;661758;-72
2022/01/09 03:21:56;;;;;;;65.80;25.43;;;-1.90;99.90;;;;;;4373015;28;660774;-72
2022/01/09 03:24:44;;;;;;;77.60;29.83;;;-2.00;99.90;;;;;;4399775;28;661681;-72
2022/01/09 03:27:33;;;;;;;82.33;31.10;;;-2.00;99.90;;;;;;4381441;28;661069;-73
2022/01/09 03:30:22;;;;;;;78.53;28.73;;;-2.10;99.90;;;;;;4389574;28;660571;-73
2022/01/09 03:33:09;;;;;;;64.20;24.87;;;-2.20;99.90;;;;;;4398798;28;661219;-71
2022/01/09 03:35:57;;;;;;;67.00;24.93;;;-2.30;99.90;;;;;;4369524;28;660909;-72
2022/01/09 03:38:44;;;;;;;67.40;24.53;;;-2.40;99.90;;;;;;4403723;28;661415;-73
2022/01/09 03:41:32;;;;;;;60.60;23.43;;;-2.40;99.90;;;;;;4385048;28;660876;-71
2022/01/09 03:44:21;;;;;;;65.17;23.73;;;-2.50;99.90;;;;;;4407931;28;661295;-72
2022/01/09 03:47:08;;;;;;;63.60;23.30;;;-2.60;99.90;;;;;;4382932;28;661713;-71
2022/01/09 03:49:56;;;;;;;61.47;23.20;;;-2.70;99.90;;;;;;4393658;28;660543;-72
2022/01/09 03:52:46;;;;;;;65.00;25.13;;;-2.70;99.90;;;;;;4408231;28;662044;-72
2022/01/09 03:55:34;;;;;;;61.20;22.67;;;-2.80;99.90;;;;;;4385493;28;661016;-71
2022/01/09 03:58:21;;;;;;;59.60;24.23;;;-3.00;99.90;;;;;;4390313;28;660927;-73
2022/01/09 04:01:10;;;;;;;60.17;24.03;;;-3.00;99.90;;;;;;4409456;28;661915;-72
2022/01/09 04:03:58;;;;;;;65.97;24.87;;;-3.10;99.90;;;;;;4380765;28;662299;-71
2022/01/09 04:06:49;;;;;;;66.57;23.80;;;-3.10;99.90;;;;;;4411549;28;659831;-71
2022/01/09 04:09:39;;;;;;;66.40;24.83;;;-3.20;99.90;;;;;;4388753;28;660982;-72
2022/01/09 04:12:34;;;;;;;56.87;21.57;;;-3.20;99.90;;;;;;4386798;28;661021;-72
2022/01/09 04:15:22;;;;;;;58.00;22.90;;;-3.30;99.90;;;;;;4386912;28;660778;-72
2022/01/09 04:18:10;;;;;;;60.43;24.03;;;-3.30;99.90;;;;;;4405235;28;661264;-72
2022/01/09 04:20:58;;;;;;;58.13;21.90;;;-3.40;99.90;;;;;;4384560;28;661168;-72
2022/01/09 04:23:46;;;;;;;64.53;24.03;;;-3.40;99.90;;;;;;4403687;28;660433;-73
2022/01/09 04:26:33;;;;;;;60.60;21.97;;;-3.40;99.90;;;;;;4407630;28;662474;-72
2022/01/09 04:29:21;;;;;;;55.63;22.03;;;-3.60;99.90;;;;;;4390710;28;660966;-73
2022/01/09 04:32:09;;;;;;;56.37;21.77;;;-3.70;99.90;;;;;;4405512;28;662180;-72
2022/01/09 04:34:58;;;;;;;57.63;23.03;;;-3.70;99.90;;;;;;4388656;28;660963;-72
2022/01/09 04:37:47;;;;;;;60.08;21.95;;;-3.70;99.90;;;;;;4386117;28;661141;-72
2022/01/09 04:40:35;;;;;;;59.17;22.20;;;-3.70;99.90;;;;;;4411190;28;661064;-72
2022/01/09 04:43:22;;;;;;;61.27;22.13;;;-3.80;99.90;;;;;;4388144;28;660432;-72
2022/01/09 04:46:12;;;;;;;58.43;21.93;;;-3.80;99.90;;;;;;4407034;28;660916;-71
2022/01/09 04:49:00;;;;;;;61.07;21.67;;;-3.80;99.90;;;;;;4380467;28;660791;-71
2022/01/09 04:51:49;;;;;;;58.67;21.90;;;-3.90;99.90;;;;;;4388223;28;660877;-72
2022/01/09 04:54:37;;;;;;;56.13;21.73;;;-4.00;99.90;;;;;;4388075;28;660661;-72
2022/01/09 04:57:24;;;;;;;58.17;21.50;;;-4.00;99.90;;;;;;4408028;28;661845;-72
2022/01/09 05:00:12;;;;;;;60.13;22.03;;;-4.00;99.90;;;;;;4385852;28;662151;-73
2022/01/09 05:03:00;;;;;;;54.47;20.50;;;-4.10;99.90;;;;;;4407803;28;660583;-72
2022/01/09 05:05:47;;;;;;;50.70;20.67;;;-4.10;99.90;;;;;;4387282;28;661470;-72
2022/01/09 05:08:36;;;;;;;54.37;21.13;;;-4.10;99.90;;;;;;4410352;28;660493;-72
2022/01/09 05:11:24;;;;;;;58.87;20.63;;;-4.10;99.90;;;;;;4388032;28;662229;-72
2022/01/09 05:14:11;;;;;;;58.07;21.30;;;-4.10;99.90;;;;;;4384358;28;661744;-72
2022/01/09 05:16:59;;;;;;;55.03;21.00;;;-4.20;99.90;;;;;;4408651;28;661566;-72
2022/01/09 05:19:47;;;;;;;58.23;21.90;;;-4.10;99.90;;;;;;4384948;28;660586;-73
2022/01/09 05:22:35;;;;;;;58.43;21.03;;;-4.10;99.90;;;;;;4410398;28;660881;-72
2022/01/09 05:25:24;;;;;;;57.47;21.13;;;-4.10;99.90;;;;;;4385988;28;660517;-73
2022/01/09 05:28:11;;;;;;;57.27;21.17;;;-4.00;99.90;;;;;;4384230;28;660454;-73
2022/01/09 05:30:59;;;;;;;58.13;22.23;;;-4.00;99.90;;;;;;4404040;28;661163;-72
2022/01/09 05:33:46;;;;;;;60.00;21.83;;;-4.00;99.90;;;;;;4387477;28;660896;-72
2022/01/09 05:36:34;;;;;;;58.57;22.00;;;-3.90;99.90;;;;;;4418120;28;661927;-71
2022/01/09 05:39:22;;;;;;;57.40;21.90;;;-3.80;99.90;;;;;;4389441;28;661125;-73
2022/01/09 05:42:12;;;;;;;66.43;24.10;;;-3.80;99.90;;;;;;4401548;28;660940;-73
2022/01/09 05:45:00;;;;;;;71.20;25.52;;;-3.70;99.90;;;;;;4377959;28;661387;-72
2022/01/09 05:47:47;;;;;;;76.83;27.20;;;-3.70;99.90;;;;;;4379296;28;662090;-72
2022/01/09 05:50:35;;;;;;;57.83;22.80;;;-3.60;99.90;;;;;;4396557;28;661228;-72
2022/01/09 05:53:23;;;;;;;159.57;41.63;;;-3.60;99.90;;;;;;4371699;28;661626;-73
2022/01/09 05:56:10;;;;;;;100.07;27.77;;;-3.50;99.90;;;;;;4381680;28;661358;-72
2022/01/09 05:58:59;;;;;;;165.40;45.07;;;-3.50;99.90;;;;;;4353566;28;662961;-72
2022/01/09 06:01:47;;;;;;;104.03;32.80;;;-3.50;99.90;;;;;;4367610;28;661890;-72
2022/01/09 06:04:34;;;;;;;118.20;35.50;;;-3.40;99.90;;;;;;4384468;28;661814;-72
2022/01/09 06:07:22;;;;;;;129.70;36.53;;;-3.40;99.90;;;;;;4360066;28;661675;-73
2022/01/09 06:10:10;;;;;;;90.73;29.80;;;-3.30;99.90;;;;;;4395150;28;662306;-72
2022/01/09 06:12:57;;;;;;;93.53;28.93;;;-3.30;99.90;;;;;;4369875;28;661773;-73
2022/01/09 06:15:46;;;;;;;78.57;27.87;;;-3.20;99.90;;;;;;4401358;28;661339;-72
2022/01/09 06:18:34;;;;;;;74.63;26.57;;;-3.20;99.90;;;;;;4373339;28;661553;-72
2022/01/09 06:21:22;;;;;;;79.67;27.33;;;-3.10;99.90;;;;;;4378761;28;660576;-73
2022/01/09 06:24:09;;;;;;;75.23;26.70;;;-3.10;99.90;;;;;;4390486;28;661658;-72
2022/01/09 06:26:57;;;;;;;78.88;26.35;;;-3.00;99.90;;;;;;4363354;28;660762;-72
2022/01/09 06:29:44;;;;;;;55.30;19.70;;;-3.00;99.90;;;;;;4395419;28;661787;-72
2022/01/09 06:32:33;;;;;;;57.85;22.45;;;-2.90;99.90;;;;;;4377391;28;660949;-74
2022/01/09 06:35:21;;;;;;;56.35;21.10;;;-2.80;99.90;;;;;;4389354;28;661088;-73
2022/01/09 06:38:09;;;;;;;65.63;23.40;;;-2.80;99.90;;;;;;4391528;28;661194;-72
2022/01/09 06:40:56;;;;;;;69.73;24.73;;;-2.70;99.90;;;;;;4377353;28;660699;-72
2022/01/09 06:44:15;;;;;;;70.75;24.17;;;-2.60;99.90;;;;;;4369232;28;661899;-72
2022/01/09 06:47:02;;;;;;;64.03;23.17;;;-2.60;99.90;;;;;;4371461;28;660965;-72
2022/01/09 06:49:51;;;;;;;67.93;24.50;;;-2.60;99.90;;;;;;4392772;28;662339;-72
2022/01/09 06:52:38;;;;;;;64.27;22.87;;;-2.60;99.90;;;;;;4370237;28;661986;-71
2022/01/09 06:55:26;;;;;;;65.80;24.47;;;-2.60;99.90;;;;;;4372987;28;660683;-74
2022/01/09 06:58:14;;;;;;;65.77;24.40;;;-2.50;99.90;;;;;;4393903;28;661551;-72
2022/01/09 07:01:01;;;;;;;57.83;22.87;;;-2.50;99.90;;;;;;4373240;28;661280;-72
2022/01/09 07:03:49;;;;;;;63.50;23.77;;;-2.60;99.90;;;;;;4392556;28;662113;-72
2022/01/09 07:06:38;;;;;;;59.20;22.63;;;-2.60;99.90;;;;;;4373038;28;661128;-72
2022/01/09 07:09:26;;;;;;;55.63;20.70;;;-2.60;99.90;;;;;;4395948;28;660200;-73
2022/01/09 07:12:13;;;;;;;63.03;22.90;;;-2.60;99.90;;;;;;4392195;28;661408;-72
2022/01/09 07:15:01;;;;;;;63.87;22.50;;;-2.60;99.90;;;;;;4375208;28;661160;-73
2022/01/09 07:17:48;;;;;;;62.93;23.17;;;-2.60;99.90;;;;;;4392427;28;661730;-72
2022/01/09 07:20:36;;;;;;;66.10;23.58;;;-2.60;99.90;;;;;;4372990;28;660579;-74
2022/01/09 07:23:25;;;;;;;65.83;24.73;;;-2.60;99.90;;;;;;4392063;28;662206;-71
2022/01/09 07:26:12;;;;;;;63.53;23.13;;;-2.60;99.90;;;;;;4372976;28;660536;-72
2022/01/09 07:29:00;;;;;;;59.03;20.70;;;-2.60;99.90;;;;;;4395538;28;660360;-72
2022/01/09 07:31:48;;;;;;;59.93;22.03;;;-2.60;99.90;;;;;;4368861;28;661628;-72
2022/01/09 07:34:35;;;;;;;61.13;22.33;;;-2.60;99.90;;;;;;4396068;28;660380;-72
2022/01/09 07:37:23;;;;;;;58.87;22.17;;;-2.60;99.90;;;;;;4369443;28;662349;-72
2022/01/09 07:40:13;;;;;;;54.15;22.40;;;-2.60;99.90;;;;;;4394698;28;660505;-73
2022/01/09 07:43:01;;;;;;;56.73;22.33;;;-2.60;99.90;;;;;;4401592;28;661050;-74
2022/01/09 07:45:49;;;;;;;51.70;20.70;;;-2.60;99.90;;;;;;4413171;28;660837;-71
2022/01/09 07:48:36;;;;;;;63.23;21.67;;;-2.60;99.90;;;;;;4391281;28;660751;-74
2022/01/09 07:51:24;;;;;;;59.67;22.23;;;-2.60;99.90;;;;;;4412762;28;661275;-72
2022/01/09 07:54:12;;;;;;;60.17;21.27;;;-2.60;99.90;;;;;;4390641;28;661142;-73
2022/01/09 07:57:01;;;;;;;50.87;20.70;;;-2.60;99.90;;;;;;4408973;28;660498;-71
2022/01/09 07:59:49;;;;;;;51.53;19.93;;;-2.60;99.90;;;;;;4385869;28;661253;-72
2022/01/09 08:02:40;;;;;;;55.70;20.70;;;-2.50;99.90;;;;;;4389658;28;660337;-72
2022/01/09 08:05:28;;;;;;;66.43;22.00;;;-2.40;99.90;;;;;;4389838;28;661513;-73
2022/01/09 08:08:16;;;;;;;55.63;21.97;;;-2.30;99.90;;;;;;4401940;28;661585;-73
2022/01/09 08:11:04;;;;;;;67.27;23.90;;;-2.20;99.90;;;;;;4412133;28;661195;-72
2022/01/09 08:13:54;;;;;;;70.77;25.20;;;-2.10;99.90;;;;;;4389168;28;661564;-72
2022/01/09 08:16:41;;;;;;;86.50;29.90;;;-2.00;99.90;;;;;;4389358;28;661187;-72
2022/01/09 08:19:30;;;;;;;80.27;29.47;;;-1.90;99.90;;;;;;4412457;28;661993;-71
2022/01/09 08:22:18;;;;;;;94.27;32.33;;;-1.70;99.90;;;;;;4384926;28;661665;-73
2022/01/09 08:25:07;;;;;;;84.00;30.30;;;-1.60;99.90;;;;;;4403760;28;660564;-73
2022/01/09 08:27:55;;;;;;;74.50;26.27;;;-1.40;99.90;;;;;;4408292;28;661517;-72
2022/01/09 08:30:44;;;;;;;74.83;27.07;;;-1.30;99.90;;;;;;4389078;28;661616;-72
2022/01/09 08:33:31;;;;;;;77.67;27.87;;;-0.90;99.90;;;;;;4388866;28;660809;-74
2022/01/09 08:36:19;;;;;;;76.00;26.63;;;-0.30;99.90;;;;;;4408732;28;661624;-73
2022/01/09 08:39:15;;;;;;;57.90;22.13;;;0.60;99.90;;;;;;4378652;28;660584;-74
2022/01/09 08:42:09;;;;;;;53.37;21.77;;;1.40;99.90;;;;;;4369127;28;660243;-73
2022/01/09 08:45:02;;;;;;;56.07;22.23;;;2.00;99.90;;;;;;4374460;28;659720;-74
2022/01/09 08:48:01;;;;;;;58.27;23.93;;;2.40;99.90;;;;;;4374280;28;660562;-74
2022/01/09 08:50:51;;;;;;;60.60;24.80;;;2.70;99.90;;;;;;4368149;28;659904;-73
2022/01/09 08:53:50;;;;;;;44.90;19.63;;;3.30;99.90;;;;;;4370373;28;659626;-74
2022/01/09 08:56:42;;;;;;;39.00;17.97;;;3.80;99.90;;;;;;4370363;28;660288;-73
2022/01/09 08:59:35;;;;;;;43.73;19.73;;;4.70;99.30;;;;;;4370462;28;659990;-74
2022/01/09 09:02:26;;;;;;;44.63;20.07;;;5.40;92.60;;;;;;4347587;28;660533;-74
2022/01/09 09:05:15;;;;;;;44.83;19.00;;;6.20;83.10;;;;;;4373153;28;660535;-74
2022/01/09 09:08:03;;;;;;;40.57;18.77;;;7.00;73.70;;;;;;4373581;28;659988;-75
2022/01/09 09:10:51;;;;;;;41.13;19.63;;;7.50;68.00;;;;;;4395927;28;660406;-77
2022/01/09 09:13:46;;;;;;;40.13;18.63;;;8.20;64.40;;;;;;4396192;28;659172;-75
2022/01/09 09:16:41;;;;;;;41.00;19.27;;;8.50;60.40;;;;;;4367132;28;659958;-75
2022/01/09 09:19:33;;;;;;;35.07;16.43;;;8.80;59.30;;;;;;4369601;28;660451;-76
2022/01/09 09:22:31;;;;;;;32.07;16.13;;;9.20;56.30;;;;;;4366939;28;659798;-76
2022/01/09 09:25:19;;;;;;;30.70;15.37;;;9.50;55.40;;;;;;4349675;28;660398;-76
2022/01/09 09:28:06;;;;;;;32.93;16.90;;;9.80;55.20;;;;;;4373500;28;659375;-74
2022/01/09 09:30:54;;;;;;;38.00;18.87;;;10.10;52.70;;;;;;4395391;28;660276;-76
2022/01/09 09:33:41;;;;;;;40.23;21.43;;;10.50;52.00;;;;;;4372041;28;660821;-75
2022/01/09 09:36:29;;;;;;;33.33;17.90;;;10.70;50.60;;;;;;4394457;28;662014;-75
2022/01/09 09:39:18;;;;;;;32.80;18.50;;;10.90;49.90;;;;;;4372009;28;660372;-76
2022/01/09 09:42:07;;;;;;;33.75;17.83;;;11.10;49.80;;;;;;4376336;28;660702;-75
2022/01/09 09:45:00;;;;;;;38.23;20.03;;;11.40;49.30;;;;;;4390465;28;661658;-75
2022/01/09 09:47:49;;;;;;;41.00;21.63;;;11.50;48.10;;;;;;4368001;28;660740;-75
2022/01/09 09:50:36;;;;;;;41.20;20.17;;;11.90;47.70;;;;;;4371780;28;661005;-76
2022/01/09 09:53:24;;;;;;;36.73;19.43;;;11.70;47.20;;;;;;4394204;28;662740;-75
2022/01/09 09:56:13;;;;;;;38.80;20.37;;;12.00;46.50;;;;;;4371699;28;660749;-75
2022/01/09 09:59:01;;;;;;;38.33;20.90;;;12.20;45.80;;;;;;4382723;28;661398;-76
2022/01/09 10:01:49;;;;;;;38.33;21.13;;;12.30;45.30;;;;;;4394583;28;661824;-76
2022/01/09 10:04:37;;;;;;;38.10;20.33;;;12.80;45.80;;;;;;4372592;28;660972;-75
2022/01/09 10:07:25;;;;;;;34.27;18.17;;;12.80;44.70;;;;;;4397697;28;660652;-75
2022/01/09 10:10:16;;;;;;;36.03;18.53;;;13.00;44.00;;;;;;4374961;28;661499;-75
2022/01/09 10:13:10;;;;;;;29.93;16.50;;;13.20;43.70;;;;;;4371374;28;660879;-75
2022/01/09 10:15:59;;;;;;;40.53;21.30;;;13.30;43.80;;;;;;4370676;28;661259;-75
2022/01/09 10:18:48;;;;;;;38.33;21.57;;;13.40;42.50;;;;;;4375047;28;660948;-76
2022/01/09 10:21:39;;;;;;;37.77;20.73;;;13.30;43.00;;;;;;4374497;28;661022;-75
2022/01/09 10:24:26;;;;;;;35.73;18.93;;;13.50;43.30;;;;;;4374714;28;660452;-76
2022/01/09 10:27:28;;;;;;;40.33;20.70;;;13.80;42.00;;;;;;4396080;28;660860;-75
2022/01/09 10:30:18;;;;;;;30.90;17.83;;;13.80;41.50;;;;;;4374735;28;660927;-77
2022/01/09 10:33:07;;;;;;;33.63;18.50;;;13.80;41.00;;;;;;4397943;28;661283;-75
2022/01/09 10:35:55;;;;;;;29.90;16.80;;;13.60;39.40;;;;;;4374344;28;661686;-76
2022/01/09 10:38:46;;;;;;;34.13;17.65;;;13.40;41.10;;;;;;4380026;28;661811;-75
2022/01/09 10:41:55;;;;;;;30.43;16.03;;;12.90;40.80;;;;;;4370598;28;661225;-76
2022/01/09 10:44:44;;;;;;;29.27;15.23;;;13.00;41.40;;;;;;4370702;28;661360;-75
2022/01/09 10:47:38;;;;;;;35.67;17.77;;;13.60;41.90;;;;;;4374346;28;661253;-75
2022/01/09 10:50:29;;;;;;;32.03;17.83;;;13.80;41.30;;;;;;4374752;28;660969;-75
2022/01/09 10:53:24;;;;;;;29.38;15.38;;;14.00;39.80;;;;;;4374101;28;660801;-76
2022/01/09 10:56:13;;;;;;;30.88;15.93;;;14.10;39.50;;;;;;4374307;28;661113;-75
2022/01/09 10:59:01;;;;;;;25.80;14.18;;;14.60;40.20;;;;;;4388726;28;661252;-76
2022/01/09 11:01:49;;;;;;;26.58;14.90;;;14.70;37.70;;;;;;4393627;28;662167;-75
2022/01/09 11:04:38;;;;;;;30.27;14.15;;;14.50;37.60;;;;;;4374800;28;660830;-75
2022/01/09 11:07:25;;;;;;;31.17;16.48;;;14.30;37.80;;;;;;4397761;28;661002;-75
2022/01/09 11:10:16;;;;;;;29.35;17.30;;;14.50;37.80;;;;;;4370290;28;661428;-75
2022/01/09 11:13:03;;;;;;;32.35;16.45;;;14.50;38.20;;;;;;4372884;28;661234;-76
2022/01/09 11:18:52;;;;;;;36.37;18.33;;;13.90;38.30;;;;;;4372737;28;660782;-75
2022/01/09 11:21:43;;;;;;;24.20;11.50;;;13.50;38.60;;;;;;4396704;28;661149;-75
2022/01/09 11:24:49;;;;;;;18.80;9.83;;;13.00;38.10;;;;;;4374311;28;661219;-74
2022/01/09 11:27:52;;;;;;;19.93;10.90;;;12.70;38.50;;;;;;4375527;28;660154;-74
2022/01/09 11:30:58;;;;;;;17.80;10.17;;;12.80;38.70;;;;;;4370170;28;661321;-74
2022/01/09 11:33:59;;;;;;;21.17;11.03;;;12.70;37.80;;;;;;4370544;28;660773;-74
2022/01/09 11:36:53;;;;;;;22.37;11.50;;;12.80;37.20;;;;;;4373850;28;661356;-73
2022/01/09 11:39:44;;;;;;;23.87;12.30;;;13.10;38.30;;;;;;4391360;28;660872;-74
2022/01/09 11:42:31;;;;;;;22.07;10.40;;;13.10;37.70;;;;;;4373498;28;661019;-75
2022/01/09 11:45:19;;;;;;;19.17;10.13;;;13.00;37.20;;;;;;4396517;28;661636;-75
2022/01/09 11:48:07;;;;;;;22.03;11.63;;;13.20;38.40;;;;;;4373932;28;660661;-74
2022/01/09 11:51:13;;;;;;;21.10;10.90;;;13.70;38.00;;;;;;4396563;28;661774;-74
2022/01/09 11:54:20;;;;;;;20.07;9.97;;;13.80;37.30;;;;;;4352588;28;660834;-74
2022/01/09 11:57:10;;;;;;;20.33;10.13;;;14.00;36.90;;;;;;4375301;28;659646;-74
2022/01/09 11:59:57;;;;;;;19.63;10.43;;;13.90;35.80;;;;;;4370241;28;660795;-73
2022/01/09 12:02:45;;;;;;;26.70;12.13;;;13.90;36.40;;;;;;4395662;28;660758;-73
2022/01/09 12:05:50;;;;;;;29.60;14.07;;;14.10;36.60;;;;;;4373711;28;660959;-73
2022/01/09 12:09:07;;;;;;;22.03;11.30;;;14.00;36.20;;;;;;4370715;28;661910;-73
2022/01/09 12:12:10;;;;;;;18.60;9.03;;;14.60;35.60;;;;;;4369526;28;661362;-74
2022/01/09 12:15:01;;;;;;;16.73;9.20;;;14.30;35.00;;;;;;4348446;28;660760;-72
2022/01/09 12:17:49;;;;;;;21.33;10.53;;;14.10;35.50;;;;;;4371035;28;660234;-73
2022/01/09 12:20:40;;;;;;;31.80;14.27;;;14.20;35.40;;;;;;4373206;28;660812;-74
2022/01/09 12:23:28;;;;;;;24.40;11.87;;;14.30;36.40;;;;;;4373077;28;661469;-74
2022/01/09 12:26:27;;;;;;;34.00;16.03;;;14.60;36.10;;;;;;4388951;28;660650;-74
2022/01/09 12:29:46;;;;;;;33.33;17.23;;;14.50;35.00;;;;;;4369100;28;661366;-73
2022/01/09 12:32:40;;;;;;;22.10;10.60;;;14.60;35.70;;;;;;4368747;28;661197;-72
2022/01/09 12:35:28;;;;;;;21.73;10.77;;;14.30;35.50;;;;;;4373108;28;661127;-73
2022/01/09 12:38:17;;;;;;;21.60;10.87;;;13.90;35.70;;;;;;4380465;28;661158;-74
2022/01/09 12:41:05;;;;;;;31.77;13.90;;;13.80;36.60;;;;;;4392220;28;661087;-72
2022/01/09 12:43:59;;;;;;;27.70;12.77;;;13.50;36.60;;;;;;4367814;28;662201;-72
2022/01/09 12:46:51;;;;;;;23.98;12.10;;;13.00;37.30;;;;;;4351523;28;661010;-72
2022/01/09 12:49:38;;;;;;;22.40;11.60;;;12.90;37.90;;;;;;4327863;28;661055;-72
2022/01/09 12:52:26;;;;;;;30.20;14.10;;;12.80;38.10;;;;;;4374528;28;660968;-73
2022/01/09 12:55:14;;;;;;;27.97;13.27;;;12.60;39.20;;;;;;4381000;28;661044;-71
2022/01/09 12:58:01;;;;;;;30.40;14.03;;;12.40;38.50;;;;;;4361250;28;660510;-72
2022/01/09 13:00:49;;;;;;;30.30;14.03;;;11.60;38.60;;;;;;4381204;28;661021;-72
2022/01/09 13:03:40;;;;;;;30.03;13.20;;;11.40;40.60;;;;;;4369991;28;661415;-71
2022/01/09 13:06:29;;;;;;;49.70;18.50;;;11.00;40.70;;;;;;4350707;28;661032;-71
2022/01/09 13:09:18;;;;;;;36.97;15.30;;;10.90;41.10;;;;;;4371538;28;661282;-72
2022/01/09 13:12:07;;;;;;;38.03;15.90;;;10.40;41.20;;;;;;4391347;28;661020;-72
2022/01/09 13:14:55;;;;;;;39.43;15.67;;;10.20;41.90;;;;;;4371010;28;660624;-71
2022/01/09 13:17:47;;;;;;;42.83;17.90;;;10.00;42.80;;;;;;4368958;28;660881;-71
2022/01/09 13:20:36;;;;;;;27.17;12.27;;;9.90;44.40;;;;;;4372490;28;661508;-72
2022/01/09 13:23:24;;;;;;;23.97;11.47;;;9.60;44.60;;;;;;4367552;28;660616;-72
2022/01/09 13:26:16;;;;;;;23.10;10.93;;;9.40;44.40;;;;;;4373098;28;659966;-73
2022/01/09 13:29:04;;;;;;;25.40;12.40;;;9.20;45.60;;;;;;4372812;28;660554;-72
2022/01/09 13:31:54;;;;;;;38.63;17.67;;;9.10;46.10;;;;;;4370927;28;659501;-72
2022/01/09 13:34:42;;;;;;;39.10;18.87;;;8.80;46.40;;;;;;4373500;28;659887;-72
2022/01/09 13:37:32;;;;;;;39.50;15.90;;;8.50;46.90;;;;;;4396194;28;659901;-72
2022/01/09 13:40:20;;;;;;;43.30;18.30;;;8.30;47.30;;;;;;4368287;28;661183;-72
2022/01/09 13:43:10;;;;;;;47.03;17.63;;;8.10;47.70;;;;;;4371898;28;659765;-72
2022/01/09 13:46:11;;;;;;;81.10;29.10;;;7.90;48.50;;;;;;4371152;28;660210;-72
2022/01/09 13:48:59;;;;;;;90.57;35.13;;;7.70;49.00;;;;;;4369279;28;660021;-71
2022/01/09 13:51:49;;;;;;;90.87;33.93;;;7.60;49.50;;;;;;4373134;28;660402;-73
2022/01/09 13:54:40;;;;;;;77.97;30.27;;;7.40;49.70;;;;;;4373409;28;659593;-73
2022/01/09 13:57:53;;;;;;;70.20;27.97;;;7.30;50.30;;;;;;4373292;28;660552;-72
2022/01/09 14:00:49;;;;;;;69.60;27.07;;;7.10;50.70;;;;;;4391302;28;659404;-72
2022/01/09 14:03:42;;;;;;;67.17;25.90;;;6.80;50.80;;;;;;4372459;28;659717;-72
2022/01/09 14:06:34;;;;;;;73.07;27.30;;;6.40;51.20;;;;;;4368594;28;660026;-72
2022/01/09 14:09:32;;;;;;;71.00;25.90;;;6.20;51.70;;;;;;4369622;28;659863;-72
2022/01/09 14:12:30;;;;;;;66.07;25.47;;;5.90;52.60;;;;;;4369017;28;659902;-71
2022/01/09 14:15:21;;;;;;;45.50;18.17;;;5.60;53.50;;;;;;4370161;28;660036;-72